Farmington ASC Data

Date Time Air Temperature Relative Humidity Dewpoint Windchill Heat Index Wind Speed Wind Dir. Rain Solar Radiation Soil Temperature
2m 2m 3m 3m 10cm
US/Mountain F % F F F MPH deg in MJ/m^2 F
max avg avg
2021-06-11 00:05:00 71.2 16.8 23.9 71.2 71.2 5.5 7.4 4.8 149.9 161.4 0.00 0.0000000 67.6
2021-06-11 00:10:00 69.6 16.5 22.1 69.6 69.6 3.1 5.5 2.5 197.4 141.2 0.00 0.0000000 67.5
2021-06-11 00:15:00 68.6 20.0 25.9 68.6 68.6 3.1 4.6 3.4 145.9 175.1 0.00 0.0000000 67.4
2021-06-11 00:20:00 69.2 16.4 21.6 69.2 69.2 1.5 3.7 2.0 230.4 253.9 0.00 0.0000000 67.4
2021-06-11 00:25:00 69.1 14.5 18.7 69.1 69.1 1.9 2.8 1.4 268.9 268.2 0.00 0.0000000 67.3
2021-06-11 00:30:00 68.9 16.0 20.8 68.9 68.9 1.7 3.5 2.1 285.6 230.4 0.00 0.0000000 67.3
2021-06-11 00:35:00 68.8 14.3 18.1 68.8 68.8 4.4 8.3 4.6 233.5 243.3 0.00 0.0000000 67.2
2021-06-11 00:40:00 70.4 14.2 19.3 70.4 70.4 7.6 7.8 5.7 258.8 252.6 0.00 0.0000000 67.2
2021-06-11 00:45:00 72.1 12.0 16.7 72.1 72.1 6.9 10.5 7.1 255.6 251.6 0.00 0.0000000 67.1
2021-06-11 00:50:00 71.3 13.9 19.5 71.3 71.3 4.2 8.1 5.3 284.3 251.6 0.00 0.0000000 67.1
2021-06-11 00:55:00 69.9 14.2 18.8 69.9 69.9 5.8 6.3 4.9 222.4 252.4 0.00 0.0000000 67.0
2021-06-11 01:00:00 67.7 17.8 22.4 67.7 67.7 3.8 6.0 4.3 168.9 233.5 0.00 0.0000000 67.0
2021-06-11 01:05:00 65.4 21.8 25.3 65.4 65.4 5.1 5.1 4.3 115.5 169.2 0.00 0.0000000 67.0
2021-06-11 01:10:00 63.6 21.8 23.8 63.6 63.6 2.8 4.6 2.6 116.0 80.6 0.00 0.0000000 66.9
2021-06-11 01:15:00 63.0 22.5 24.0 63.0 63.0 3.0 4.4 3.1 123.7 113.9 0.00 0.0000000 66.9
2021-06-11 01:20:00 62.5 22.2 23.4 62.5 62.5 3.0 5.1 3.2 107.3 86.3 0.00 0.0000000 66.8
2021-06-11 01:25:00 62.3 22.3 23.4 62.3 62.3 6.9 6.9 3.7 116.8 108.6 0.00 0.0000000 66.8
2021-06-11 01:30:00 61.3 25.3 25.5 61.3 61.3 6.9 8.3 5.7 123.5 118.1 0.00 0.0000000 66.7
2021-06-11 01:35:00 61.4 26.1 26.3 61.4 61.4 3.1 7.2 5.0 81.4 115.2 0.00 0.0000000 66.7
2021-06-11 01:40:00 60.8 23.3 23.0 60.8 60.8 2.2 4.6 3.2 128.7 111.4 0.00 0.0000000 66.7
2021-06-11 01:45:00 60.6 22.2 21.7 60.6 60.6 2.2 4.0 2.4 58.8 78.4 0.00 0.0000000 66.6
2021-06-11 01:50:00 61.1 19.3 18.8 61.1 61.1 2.2 3.5 2.2 100.7 68.4 0.00 0.0000000 66.5
2021-06-11 01:55:00 62.7 18.2 18.8 62.7 62.7 2.1 4.2 2.7 102.9 82.3 0.00 0.0000000 66.5
2021-06-11 02:00:00 62.7 17.9 18.4 62.7 62.7 3.0 3.3 2.5 105.5 77.5 0.00 0.0000000 66.5
2021-06-11 02:05:00 62.6 18.3 18.8 62.6 62.6 2.6 2.8 2.0 57.0 78.6 0.00 0.0000000 66.4
2021-06-11 02:10:00 63.1 17.7 18.4 63.1 63.1 1.0 3.0 1.9 77.1 73.5 0.00 0.0000000 66.3
2021-06-11 02:15:00 61.6 17.9 17.5 61.6 61.6 2.4 2.4 1.7 82.0 79.6 0.00 0.0000000 66.3
2021-06-11 02:20:00 58.9 19.5 17.2 58.9 58.9 2.6 3.1 2.1 79.3 82.9 0.00 0.0000000 66.3
2021-06-11 02:25:00 57.2 20.6 17.2 57.2 57.2 1.9 3.7 2.2 96.9 86.1 0.00 0.0000000 66.2
2021-06-11 02:30:00 56.7 21.0 17.2 56.7 56.7 1.7 2.6 2.0 73.1 92.3 0.00 0.0000000 66.2
2021-06-11 02:35:00 56.5 21.7 17.8 56.5 56.5 1.5 2.6 1.6 44.8 71.6 0.00 0.0000000 66.1
2021-06-11 02:40:00 58.3 21.1 18.6 58.3 58.3 0.0 2.1 0.9 127.0 56.4 0.00 0.0000000 66.1
2021-06-11 02:45:00 59.8 20.0 18.6 59.8 59.8 0.0 0.0 0.0 63.5 0.0 0.00 0.0000000 66.0
2021-06-11 02:50:00 60.9 18.9 18.2 60.9 60.9 0.0 0.0 0.0 101.5 0.0 0.00 0.0000000 66.0
2021-06-11 02:55:00 60.6 22.6 22.1 60.6 60.6 0.0 0.0 0.0 139.3 0.0 0.00 0.0000000 65.9
2021-06-11 03:00:00 59.6 27.3 25.8 59.6 59.6 2.8 3.3 2.8 111.6 134.7 0.00 0.0000000 65.9
2021-06-11 03:05:00 58.5 20.3 17.9 58.5 58.5 3.0 3.1 2.3 69.2 98.1 0.00 0.0000000 65.8
2021-06-11 03:10:00 56.9 21.2 17.6 56.9 56.9 2.2 3.3 2.3 78.7 70.4 0.00 0.0000000 65.8
2021-06-11 03:15:00 56.0 22.4 18.1 56.0 56.0 2.2 3.0 2.3 97.7 91.7 0.00 0.0000000 65.7
2021-06-11 03:20:00 55.7 23.6 19.0 55.7 55.7 2.8 3.1 2.3 114.2 101.7 0.00 0.0000000 65.6
2021-06-11 03:25:00 56.7 26.4 22.5 56.7 56.7 2.8 3.0 2.6 114.8 118.1 0.00 0.0000000 65.6
2021-06-11 03:30:00 55.7 28.1 23.2 55.7 55.7 2.8 2.8 2.4 122.3 114.3 0.00 0.0000000 65.5
2021-06-11 03:35:00 55.9 24.8 20.4 55.9 55.9 2.4 3.3 2.9 120.2 116.7 0.00 0.0000000 65.4
2021-06-11 03:40:00 55.1 23.8 18.7 55.1 55.1 3.5 4.2 2.7 102.8 96.5 0.00 0.0000000 65.4
2021-06-11 03:45:00 54.0 24.3 18.3 54.0 54.0 3.7 4.4 3.2 113.6 95.5 0.00 0.0000000 65.3
2021-06-11 03:50:00 52.8 25.0 17.9 52.8 52.8 3.3 4.4 3.2 34.6 80.9 0.00 0.0000000 65.3
2021-06-11 03:55:00 53.3 24.1 17.5 53.3 53.3 1.2 3.7 2.2 73.7 64.5 0.00 0.0000000 65.2
2021-06-11 04:00:00 53.4 25.0 18.4 53.4 53.4 0.0 2.1 0.7 98.6 92.9 0.00 0.0000000 65.2
2021-06-11 04:05:00 52.5 28.2 20.5 52.5 52.5 1.3 3.7 2.3 81.5 93.3 0.00 0.0000000 65.1
2021-06-11 04:10:00 52.4 24.7 17.3 52.4 52.4 1.9 3.0 2.3 56.9 80.9 0.00 0.0000000 65.0
2021-06-11 04:15:00 52.5 23.8 16.5 52.5 52.5 2.1 3.1 2.3 96.1 64.2 0.00 0.0000000 65.0
2021-06-11 04:20:00 53.5 23.7 17.2 53.5 53.5 3.7 3.8 2.4 100.8 97.8 0.00 0.0000000 64.9
2021-06-11 04:25:00 52.4 23.8 16.4 52.4 52.4 3.3 4.0 3.2 96.7 91.4 0.00 0.0000000 64.9
2021-06-11 04:30:00 52.1 22.9 15.3 52.1 52.1 2.8 4.6 3.2 66.9 86.9 0.00 0.0000000 64.8
2021-06-11 04:35:00 50.9 24.1 15.4 50.9 50.9 2.4 4.0 3.0 65.3 66.1 0.00 0.0000000 64.8
2021-06-11 04:40:00 51.0 23.4 14.9 51.0 51.0 3.1 3.7 2.5 63.0 66.2 0.00 0.0000000 64.7
2021-06-11 04:45:00 51.4 23.1 15.0 51.4 51.4 1.9 2.8 1.9 59.4 69.8 0.00 0.0000000 64.7
2021-06-11 04:50:00 50.8 23.3 14.5 50.8 50.8 1.5 2.4 1.7 70.5 74.2 0.00 0.0000000 64.6
2021-06-11 04:55:00 49.9 24.0 14.5 49.4 49.9 3.1 3.1 0.6 81.7 86.7 0.00 0.0000000 64.5
2021-06-11 05:00:00 49.8 24.3 14.7 49.8 49.8 1.7 3.1 1.8 83.9 76.4 0.00 0.0000000 64.5
2021-06-11 05:05:00 48.8 24.9 14.4 48.8 48.8 1.0 2.1 0.9 97.9 81.1 0.00 0.0000000 64.5
2021-06-11 05:10:00 49.0 24.2 13.9 49.0 49.0 1.9 2.2 1.8 71.7 78.7 0.00 0.0000000 64.4
2021-06-11 05:15:00 48.7 24.3 13.8 48.7 48.7 2.1 2.4 1.8 95.5 75.4 0.00 0.0000000 64.3
2021-06-11 05:20:00 49.2 24.0 13.8 49.2 49.2 1.9 3.8 2.4 70.9 87.1 0.00 0.0000000 64.3
2021-06-11 05:25:00 48.8 24.5 14.1 48.8 48.8 1.3 2.4 1.8 66.1 70.8 0.00 0.0000000 64.2
2021-06-11 05:30:00 48.9 24.7 14.3 48.9 48.9 1.5 2.6 1.8 75.2 65.7 0.00 0.0000000 64.2
2021-06-11 05:35:00 49.1 24.1 13.9 49.1 49.1 1.3 2.2 1.7 107.6 78.0 0.00 0.0000000 64.1
2021-06-11 05:40:00 49.2 24.3 14.2 49.2 49.2 1.7 3.5 2.0 102.3 97.7 0.00 0.0010000 64.0
2021-06-11 05:45:00 49.5 24.6 14.7 49.5 49.5 2.6 3.3 2.1 76.4 74.3 0.00 0.0020000 64.0
2021-06-11 05:50:00 49.5 23.9 14.0 49.5 49.5 2.2 3.3 2.4 67.1 75.5 0.00 0.0030000 63.9
2021-06-11 05:55:00 50.2 24.6 15.3 50.2 50.2 3.5 4.4 2.7 115.5 89.3 0.00 0.0040000 63.9
2021-06-11 06:00:00 51.1 24.8 16.3 51.1 51.1 4.2 4.2 3.1 102.3 87.1 0.00 0.0060000 63.8
2021-06-11 06:05:00 51.3 24.6 16.3 51.3 51.3 5.1 5.1 3.6 111.4 107.3 0.00 0.0080000 63.8
2021-06-11 06:10:00 52.1 24.5 16.8 52.1 52.1 3.5 5.5 4.2 102.3 103.0 0.00 0.0100000 63.7
2021-06-11 06:15:00 51.9 25.7 17.8 51.9 51.9 3.1 4.9 3.8 71.7 99.2 0.00 0.0120000 63.6
2021-06-11 06:20:00 52.4 24.9 17.4 52.4 52.4 3.1 4.9 3.6 105.3 87.1 0.00 0.0140000 63.6
2021-06-11 06:25:00 53.0 23.4 16.6 53.0 53.0 3.5 4.0 3.1 80.5 85.1 0.00 0.0170000 63.5
2021-06-11 06:30:00 53.9 21.4 15.3 53.9 53.9 2.4 4.9 2.9 99.0 76.7 0.00 0.0440000 63.5
2021-06-11 06:35:00 54.2 22.7 16.9 54.2 54.2 4.2 4.2 2.4 92.3 79.0 0.00 0.0300000 63.4
2021-06-11 06:40:00 54.2 24.7 18.9 54.2 54.2 1.7 3.3 1.3 121.6 75.9 0.00 0.0460000 63.4
2021-06-11 06:45:00 55.1 26.5 21.2 55.1 55.1 1.3 3.7 1.9 55.1 76.8 0.00 0.0990000 63.4
2021-06-11 06:50:00 56.5 22.3 18.4 56.5 56.5 0.0 1.9 1.0 0.3 61.0 0.00 0.1340000 63.3
2021-06-11 06:55:00 57.5 21.8 18.7 57.5 57.5 2.1 2.2 0.8 25.4 24.5 0.00 0.1470000 63.3
2021-06-11 07:00:00 59.0 21.0 19.1 59.0 59.0 1.5 3.0 1.8 145.0 52.5 0.00 0.1610000 63.2
2021-06-11 07:05:00 60.7 20.5 20.0 60.7 60.7 1.0 2.8 1.2 42.0 73.8 0.00 0.1760000 63.2
2021-06-11 07:10:00 60.9 27.4 27.0 60.9 60.9 1.7 2.1 1.6 12.0 6.0 0.00 0.1920000 63.2
2021-06-11 07:15:00 61.0 22.5 22.4 61.0 61.0 0.0 2.2 1.7 10.4 15.2 0.00 0.2070000 63.2
2021-06-11 07:20:00 62.7 19.9 21.0 62.7 62.7 0.0 0.0 0.0 3.6 0.0 0.00 0.2230000 63.1
2021-06-11 07:25:00 63.7 26.5 28.7 63.7 63.7 0.0 0.0 0.0 345.5 0.0 0.00 0.2380000 63.1
2021-06-11 07:30:00 62.7 25.9 27.1 62.7 62.7 0.0 0.0 0.0 26.4 0.0 0.00 0.2540000 63.1
2021-06-11 07:35:00 63.9 31.0 32.6 63.9 63.9 0.0 0.0 0.0 128.3 0.0 0.00 0.2690000 63.1
2021-06-11 07:40:00 66.1 25.9 30.1 66.1 66.1 0.0 2.8 0.9 106.9 123.1 0.00 0.2850000 63.1
2021-06-11 07:45:00 67.2 22.5 27.6 67.2 67.2 0.8 0.8 0.0 141.5 141.5 0.00 0.3020000 63.1
2021-06-11 07:50:00 68.1 17.1 21.7 68.1 68.1 2.6 3.7 2.8 143.5 126.4 0.00 0.3190000 63.0
2021-06-11 07:55:00 68.7 13.9 17.4 68.7 68.7 3.3 3.5 2.5 150.8 139.6 0.00 0.3330000 63.0
2021-06-11 08:00:00 69.6 12.6 15.8 69.6 69.6 0.0 3.3 2.0 70.5 151.7 0.00 0.3490000 63.0
2021-06-11 08:05:00 70.6 26.9 34.9 70.6 70.6 0.0 0.0 0.0 341.2 0.0 0.00 0.3670000 63.0
2021-06-11 08:10:00 69.4 23.6 30.6 69.4 69.4 2.1 2.1 0.2 6.9 13.5 0.00 0.3840000 63.1
2021-06-11 08:15:00 68.6 25.8 32.2 68.6 68.6 1.7 2.8 2.0 38.6 12.6 0.00 0.3970000 63.1
2021-06-11 08:20:00 68.5 21.5 27.5 68.5 68.5 2.2 2.8 2.1 17.0 3.2 0.00 0.4150000 63.1
2021-06-11 08:25:00 68.0 23.5 29.3 68.0 68.0 2.6 3.7 2.9 343.5 4.3 0.00 0.4300000 63.2
2021-06-11 08:30:00 68.4 21.3 27.2 68.4 68.4 4.2 4.4 2.8 4.1 6.1 0.00 0.4450000 63.2
2021-06-11 08:35:00 68.6 26.7 33.0 68.6 68.6 3.0 4.4 3.0 334.5 358.3 0.00 0.4600000 63.3
2021-06-11 08:40:00 69.2 20.6 27.1 69.2 69.2 2.6 3.5 2.5 25.8 18.5 0.00 0.4760000 63.3
2021-06-11 08:45:00 69.7 19.6 26.3 69.7 69.7 3.1 3.5 2.2 18.1 15.9 0.00 0.4920000 63.4
2021-06-11 08:50:00 69.9 22.4 29.7 69.9 69.9 1.7 3.0 2.2 15.8 12.4 0.00 0.5080000 63.5
2021-06-11 08:55:00 70.5 21.3 29.1 70.5 70.5 1.7 3.8 2.5 1.1 2.5 0.00 0.5210000 63.6
2021-06-11 09:00:00 70.5 25.2 33.2 70.5 70.5 2.6 4.7 3.4 28.2 4.5 0.00 0.5360000 63.6
2021-06-11 09:05:00 71.2 19.4 27.2 71.2 71.2 1.9 3.5 2.2 314.2 327.6 0.00 0.5500000 63.7
2021-06-11 09:10:00 71.4 19.9 28.0 71.4 71.4 3.1 4.2 2.6 338.6 347.7 0.00 0.5660000 63.8
2021-06-11 09:15:00 71.4 19.2 27.3 71.4 71.4 2.2 4.6 3.4 338.4 353.7 0.00 0.5790000 63.9
2021-06-11 09:20:00 72.1 15.5 22.6 72.1 72.1 0.0 3.1 2.0 222.9 330.6 0.00 0.5940000 64.0
2021-06-11 09:25:00 72.6 18.6 27.4 72.6 72.6 2.2 3.8 1.7 260.5 241.9 0.00 0.6080000 64.1
2021-06-11 09:30:00 73.3 17.5 26.5 73.3 73.3 2.6 3.8 2.1 306.0 343.1 0.00 0.6220000 64.1
2021-06-11 09:35:00 73.3 13.9 21.0 73.3 73.3 3.0 3.5 1.9 229.3 275.3 0.00 0.6360000 64.3
2021-06-11 09:40:00 73.0 11.4 16.1 73.0 73.0 3.0 5.8 3.6 269.2 256.4 0.00 0.6470000 64.4
2021-06-11 09:45:00 73.5 10.1 13.8 73.5 73.5 3.8 4.9 2.9 260.1 254.9 0.00 0.6610000 64.5
2021-06-11 09:50:00 73.3 16.5 25.1 73.3 73.3 1.9 4.6 3.2 270.7 219.4 0.00 0.6740000 64.6
2021-06-11 09:55:00 74.8 18.8 29.4 74.8 74.8 0.0 3.0 1.4 330.5 263.0 0.00 0.6870000 64.7
2021-06-11 10:00:00 74.5 15.8 25.0 74.5 74.5 3.1 4.9 3.0 276.7 277.9 0.00 0.6980000 64.8
2021-06-11 10:05:00 74.5 12.7 19.9 74.5 74.5 1.7 4.2 2.7 195.2 242.8 0.00 0.7110000 64.9
2021-06-11 10:10:00 74.5 21.5 32.6 74.5 74.5 2.6 5.1 2.7 262.9 277.0 0.00 0.7240000 65.1
2021-06-11 10:15:00 74.7 16.4 26.1 74.7 74.7 5.1 5.1 2.6 332.7 259.2 0.00 0.7340000 65.2
2021-06-11 10:20:00 74.6 19.0 29.6 74.6 74.6 3.7 5.5 3.7 292.4 348.1 0.00 0.7460000 65.3
2021-06-11 10:25:00 74.9 13.7 22.0 74.9 74.9 0.0 5.8 3.5 300.5 261.9 0.00 0.7600000 65.4
2021-06-11 10:30:00 75.5 14.3 23.5 75.5 75.5 3.8 4.9 3.2 277.2 275.2 0.00 0.7700000 65.6
2021-06-11 10:35:00 75.5 11.0 17.3 75.5 75.5 1.2 5.1 3.4 314.5 306.2 0.00 0.7860000 65.7
2021-06-11 10:40:00 75.8 11.1 17.8 75.8 75.8 2.1 5.3 2.7 197.5 252.9 0.00 0.7970000 65.9
2021-06-11 10:45:00 75.8 10.3 16.0 75.8 75.8 3.8 6.2 3.7 214.7 199.3 0.00 0.8060000 66.0
2021-06-11 10:50:00 76.7 12.2 20.6 76.7 76.7 3.0 4.9 3.0 311.9 302.6 0.00 0.8160000 66.2
2021-06-11 10:55:00 76.8 10.8 17.9 76.8 76.8 1.3 4.0 2.6 170.9 223.3 0.00 0.8270000 66.3
2021-06-11 11:00:00 77.0 13.5 23.3 77.0 77.0 4.7 6.2 4.0 257.0 281.5 0.00 0.8350000 66.5
2021-06-11 11:05:00 77.0 11.1 18.6 77.0 77.0 4.6 6.7 5.1 266.8 267.5 0.00 0.8420000 66.6
2021-06-11 11:10:00 77.2 9.6 15.3 77.2 77.2 1.7 4.6 2.9 284.0 286.9 0.00 0.8530000 66.8
2021-06-11 11:15:00 78.3 12.9 23.3 78.3 78.3 3.1 4.4 1.5 219.4 240.2 0.00 0.8610000 66.9
2021-06-11 11:20:00 78.4 14.6 26.3 78.4 78.4 6.9 6.9 4.7 233.5 216.2 0.00 0.8680000 67.1
2021-06-11 11:25:00 78.5 9.6 16.5 78.5 78.5 4.4 8.0 5.5 244.8 244.5 0.00 0.8760000 67.3
2021-06-11 11:30:00 78.1 11.5 20.4 78.1 78.1 4.2 7.6 5.3 289.2 254.1 0.00 0.8820000 67.5
2021-06-11 11:35:00 79.0 11.1 20.2 79.0 79.0 7.4 8.1 4.9 248.4 270.1 0.00 0.8910000 67.6
2021-06-11 11:40:00 79.2 11.5 21.1 79.2 79.2 5.8 8.3 5.2 219.4 259.3 0.00 0.9000000 67.8
2021-06-11 11:45:00 79.2 12.2 22.7 79.2 79.2 4.7 8.8 5.6 254.5 220.8 0.00 0.9060000 67.9
2021-06-11 11:50:00 78.9 9.0 15.2 78.9 78.9 1.3 9.0 4.8 184.3 201.4 0.00 0.9120000 68.1
2021-06-11 11:55:00 79.6 13.0 24.4 79.6 79.6 4.9 6.5 3.4 204.3 213.8 0.00 0.9200000 68.3
2021-06-11 12:00:00 80.5 11.3 21.8 80.5 80.5 3.7 6.7 4.3 211.5 204.8 0.00 0.9280000 68.5
2021-06-11 12:05:00 80.0 11.9 22.6 80.0 80.0 1.9 6.7 3.9 251.2 282.2 0.00 0.9280000 68.6
2021-06-11 12:10:00 80.4 12.1 23.3 80.4 80.4 6.3 8.3 5.8 254.1 272.8 0.00 0.9330000 68.8
2021-06-11 12:15:00 80.8 10.7 20.8 80.8 80.8 4.6 6.9 3.8 231.0 236.8 0.00 0.9410000 69.0
2021-06-11 12:20:00 80.5 8.6 15.6 80.5 80.5 1.5 7.4 4.2 342.1 299.4 0.00 0.9410000 69.2
2021-06-11 12:25:00 81.2 12.2 24.1 81.2 81.2 5.6 8.7 5.1 229.7 260.1 0.00 0.9460000 69.4
2021-06-11 12:30:00 81.0 7.3 12.0 81.0 81.0 5.6 9.0 6.0 281.5 255.5 0.00 0.9490000 69.5
2021-06-11 12:35:00 82.1 6.0 8.4 82.1 82.1 8.5 10.1 6.0 238.7 258.4 0.00 0.9570000 69.7
2021-06-11 12:40:00 81.1 7.4 12.6 81.1 81.1 4.4 6.7 5.4 324.7 229.6 0.00 0.9560000 69.9
2021-06-11 12:45:00 81.4 6.7 10.4 81.4 81.4 2.1 7.1 4.8 101.5 292.0 0.00 0.9560000 70.1
2021-06-11 12:50:00 82.0 7.4 13.0 82.0 82.0 5.6 6.5 3.5 206.2 311.7 0.00 0.9600000 70.3
2021-06-11 12:55:00 82.0 6.6 10.4 82.0 82.0 3.8 7.8 4.8 193.8 218.9 0.00 0.9600000 70.5
2021-06-11 13:00:00 82.2 9.0 17.8 82.2 82.2 4.0 8.5 5.4 219.8 209.4 0.00 0.9610000 70.7
2021-06-11 13:05:00 82.6 10.8 22.4 82.6 82.6 3.3 9.7 5.9 234.5 255.0 0.00 0.9600000 70.9
2021-06-11 13:10:00 82.5 5.8 8.1 82.5 82.5 8.7 11.7 7.4 207.3 233.4 0.00 0.9570000 71.1
2021-06-11 13:15:00 82.6 6.6 10.8 82.6 82.6 4.0 8.8 5.4 296.3 272.5 0.00 0.9570000 71.2
2021-06-11 13:20:00 82.6 6.3 9.7 82.6 82.6 7.6 7.6 3.9 305.1 298.3 0.00 0.9570000 71.4
2021-06-11 13:25:00 82.6 6.5 10.5 82.6 82.6 4.9 7.1 4.8 324.8 298.7 0.00 0.9580000 71.6
2021-06-11 13:30:00 83.2 5.9 9.0 83.2 83.2 1.3 5.1 2.8 297.6 247.3 0.00 0.9570000 71.8
2021-06-11 13:35:00 83.8 6.7 12.1 83.8 83.8 4.2 6.3 4.1 48.6 37.4 0.00 0.9520000 71.9
2021-06-11 13:40:00 83.5 7.0 12.9 83.5 83.5 8.0 9.7 6.1 202.9 193.4 0.00 0.9460000 72.1
2021-06-11 13:45:00 83.8 16.4 33.5 83.8 83.8 4.4 7.2 4.7 212.9 187.6 0.00 0.9450000 72.3
2021-06-11 13:50:00 83.6 8.4 17.2 83.6 83.6 6.0 9.4 5.5 276.5 237.4 0.00 0.9410000 72.4
2021-06-11 13:55:00 83.8 6.1 9.9 83.8 83.8 3.5 11.9 7.2 238.5 266.2 0.00 0.9390000 72.6
2021-06-11 14:00:00 84.1 8.9 19.1 84.1 84.1 7.6 7.6 3.3 219.9 172.1 0.00 0.9370000 72.7
2021-06-11 14:05:00 84.6 8.6 18.5 84.6 84.6 3.5 6.7 4.0 6.9 245.1 0.00 0.9310000 72.9
2021-06-11 14:10:00 84.6 10.0 22.0 84.6 84.6 8.3 9.4 5.6 310.5 317.8 0.00 0.9260000 73.0
2021-06-11 14:15:00 84.2 8.0 16.5 84.2 84.2 3.8 8.1 5.7 32.3 322.6 0.00 0.9250000 73.1
2021-06-11 14:20:00 85.4 8.1 17.7 85.4 85.4 8.5 8.5 4.1 142.2 178.5 0.00 0.9240000 73.3
2021-06-11 14:25:00 86.6 7.4 16.4 86.6 86.6 2.6 11.2 3.9 344.0 78.1 0.00 0.9180000 73.4
2021-06-11 14:30:00 85.8 6.8 13.8 85.8 85.8 7.1 7.1 4.4 17.8 65.7 0.00 0.9130000 73.5
2021-06-11 14:35:00 85.1 8.5 18.6 85.1 85.1 3.1 8.3 4.2 35.0 357.8 0.00 0.9070000 73.7
2021-06-11 14:40:00 85.2 10.4 23.5 85.2 85.2 1.5 7.8 3.7 278.9 6.5 0.00 0.9020000 73.8
2021-06-11 14:45:00 85.5 7.2 15.1 85.5 85.5 5.6 8.5 5.7 320.5 311.1 0.00 0.8950000 73.9
2021-06-11 14:50:00 85.1 5.9 10.3 85.1 85.1 6.9 9.9 5.2 0.1 328.1 0.00 0.8900000 74.0
2021-06-11 14:55:00 85.7 6.2 11.6 85.7 85.7 6.5 6.5 4.5 5.0 330.3 0.00 0.8820000 74.1
2021-06-11 15:00:00 85.4 7.7 16.6 85.4 85.4 2.4 5.8 3.9 244.8 311.4 0.00 0.8760000 74.2
2021-06-11 15:05:00 85.9 8.9 20.3 85.9 85.9 2.6 5.3 3.0 136.2 347.9 0.00 0.8690000 74.3
2021-06-11 15:10:00 86.6 8.3 19.1 86.6 86.6 3.8 7.2 4.9 333.4 345.1 0.00 0.8610000 74.4
2021-06-11 15:15:00 86.4 10.3 24.2 86.4 86.4 4.9 6.2 3.4 316.1 334.6 0.00 0.8540000 74.5
2021-06-11 15:20:00 85.7 15.4 33.4 85.7 85.7 2.6 8.3 3.9 327.8 309.6 0.00 0.8420000 74.6
2021-06-11 15:25:00 86.0 7.6 16.7 86.0 86.0 3.8 7.2 3.8 24.4 1.4 0.00 0.8360000 74.7
2021-06-11 15:30:00 86.9 6.3 13.0 86.9 86.9 3.7 5.1 3.2 11.7 24.9 0.00 0.8270000 74.8
2021-06-11 15:35:00 86.7 8.3 19.2 86.7 86.7 2.6 4.7 3.2 156.2 18.6 0.00 0.8150000 74.9
2021-06-11 15:40:00 86.5 9.3 21.8 86.5 86.5 3.7 7.2 4.3 12.7 24.8 0.00 0.8080000 75.0
2021-06-11 15:45:00 86.8 7.0 15.4 86.8 86.8 3.5 4.9 3.3 296.8 317.9 0.00 0.7960000 75.1
2021-06-11 15:50:00 87.3 6.5 14.1 87.3 87.3 5.1 6.0 3.3 295.3 275.6 0.00 0.7860000 75.1
2021-06-11 15:55:00 86.8 5.6 10.4 86.8 86.8 4.2 7.2 5.3 314.2 310.8 0.00 0.7730000 75.2
2021-06-11 16:00:00 87.2 5.4 9.9 87.2 87.2 7.1 7.6 4.4 132.7 186.6 0.00 0.7630000 75.2
2021-06-11 16:05:00 87.8 5.7 11.4 87.8 87.8 2.6 6.5 3.8 158.1 121.1 0.00 0.7510000 75.3
2021-06-11 16:10:00 88.8 6.5 15.0 88.8 88.8 4.9 6.3 3.8 69.7 84.6 0.00 0.7400000 75.3
2021-06-11 16:15:00 89.0 10.7 26.9 89.0 89.0 2.1 4.6 2.8 225.6 67.4 0.00 0.7280000 75.3
2021-06-11 16:20:00 88.9 5.1 9.7 88.9 88.9 6.2 6.2 3.5 282.2 235.0 0.00 0.7190000 75.3
2021-06-11 16:25:00 88.5 5.5 11.0 88.5 88.5 1.2 5.6 2.7 10.4 284.8 0.00 0.7060000 75.3
2021-06-11 16:30:00 88.7 8.2 20.3 88.7 88.7 3.1 6.2 2.4 338.7 318.1 0.00 0.6940000 75.3
2021-06-11 16:35:00 87.9 8.5 20.7 87.9 87.9 7.8 9.6 6.3 1.9 309.2 0.00 0.6780000 75.2
2021-06-11 16:40:00 87.2 8.1 18.9 87.2 87.2 1.7 10.6 6.1 279.6 284.5 0.00 0.6650000 75.2
2021-06-11 16:45:00 88.1 8.3 20.1 88.1 88.1 4.6 6.9 2.9 298.9 275.1 0.00 0.6520000 75.2
2021-06-11 16:50:00 88.2 9.0 22.2 88.2 88.2 2.8 5.8 3.4 30.4 26.4 0.00 0.6390000 75.2
2021-06-11 16:55:00 88.8 7.9 19.5 88.8 88.8 1.5 6.7 2.5 231.2 332.0 0.00 0.6260000 75.2
2021-06-11 17:00:00 89.0 6.4 14.7 89.0 89.0 6.3 6.3 2.9 336.2 4.4 0.00 0.6110000 75.2
2021-06-11 17:05:00 87.9 7.6 18.2 87.9 87.9 7.8 7.8 5.1 339.4 358.9 0.00 0.5970000 75.1
2021-06-11 17:10:00 88.4 6.8 15.9 88.4 88.4 4.9 7.8 3.6 11.3 353.7 0.00 0.5830000 75.1
2021-06-11 17:15:00 88.4 5.9 12.5 88.4 88.4 3.5 7.2 4.2 300.2 332.9 0.00 0.5700000 75.1
2021-06-11 17:20:00 88.4 6.0 12.9 88.4 88.4 2.4 6.0 3.2 338.4 344.2 0.00 0.5550000 75.1
2021-06-11 17:25:00 87.6 7.8 18.4 87.6 87.6 4.9 8.3 5.3 1.0 12.0 0.00 0.5400000 75.0
2021-06-11 17:30:00 87.5 6.6 14.4 87.5 87.5 5.3 7.2 5.0 300.0 340.1 0.00 0.5260000 75.0
2021-06-11 17:35:00 87.9 9.3 22.9 87.9 87.9 3.7 8.0 4.1 15.5 345.7 0.00 0.5090000 75.0
2021-06-11 17:40:00 87.6 6.6 14.5 87.6 87.6 1.9 8.1 4.4 6.8 3.6 0.00 0.4940000 74.9
2021-06-11 17:45:00 89.2 9.2 23.4 89.2 89.2 3.0 4.6 2.3 53.4 33.1 0.00 0.4780000 74.9
2021-06-11 17:50:00 88.8 6.2 14.0 88.8 88.8 5.8 5.8 3.6 0.1 338.5 0.00 0.4630000 74.9
2021-06-11 17:55:00 87.9 5.6 11.0 87.9 87.9 6.3 6.9 4.9 336.5 342.7 0.00 0.4470000 74.8
2021-06-11 18:00:00 87.5 7.9 18.7 87.5 87.5 4.9 7.4 4.8 303.0 334.0 0.00 0.4320000 74.8
2021-06-11 18:05:00 87.7 11.3 27.4 87.7 87.7 3.7 6.7 4.6 326.0 328.3 0.00 0.4160000 74.7
2021-06-11 18:10:00 87.7 6.4 13.8 87.7 87.7 3.8 6.3 4.2 296.0 318.5 0.00 0.4030000 74.7
2021-06-11 18:15:00 88.6 7.5 18.2 88.6 88.6 2.4 4.6 3.4 49.2 311.5 0.00 0.3840000 74.6
2021-06-11 18:20:00 89.0 7.0 17.1 89.0 89.0 3.7 4.6 2.2 18.8 356.1 0.00 0.3690000 74.6
2021-06-11 18:25:00 88.6 6.5 14.8 88.6 88.6 4.7 4.7 3.5 41.7 39.3 0.00 0.3530000 74.5
2021-06-11 18:30:00 88.1 7.2 17.1 88.1 88.1 3.8 6.3 3.3 309.1 333.4 0.00 0.3370000 74.5
2021-06-11 18:35:00 87.2 8.5 20.2 87.2 87.2 4.4 8.0 5.0 0.2 333.3 0.00 0.3210000 74.4
2021-06-11 18:40:00 87.6 7.8 18.5 87.6 87.6 3.7 5.3 3.7 0.9 319.6 0.00 0.3050000 74.4
2021-06-11 18:45:00 87.6 5.9 12.0 87.6 87.6 5.8 6.9 3.9 317.2 315.0 0.00 0.2900000 74.3
2021-06-11 18:50:00 87.1 5.9 11.5 87.1 87.1 4.9 6.9 4.2 309.8 333.8 0.00 0.2740000 74.2
2021-06-11 18:55:00 87.3 8.6 20.4 87.3 87.3 2.2 5.5 3.6 7.8 322.1 0.00 0.2580000 74.2
2021-06-11 19:00:00 87.2 6.8 15.0 87.2 87.2 2.8 5.5 3.9 0.3 315.4 0.00 0.2420000 74.1
2021-06-11 19:05:00 87.3 6.4 13.8 87.3 87.3 3.3 4.6 3.0 334.5 322.9 0.00 0.2260000 74.0
2021-06-11 19:10:00 87.6 8.4 20.2 87.6 87.6 2.1 3.8 2.3 28.7 326.7 0.00 0.2110000 74.0
2021-06-11 19:15:00 87.9 9.0 22.0 87.9 87.9 0.0 3.3 1.4 285.3 351.4 0.00 0.1960000 73.9
2021-06-11 19:20:00 88.3 6.6 15.0 88.3 88.3 3.5 3.5 1.6 315.2 315.7 0.00 0.1810000 73.9
2021-06-11 19:25:00 87.6 9.4 22.7 87.6 87.6 2.2 3.7 2.2 328.7 341.4 0.00 0.1670000 73.8
2021-06-11 19:30:00 87.4 11.1 26.8 87.4 87.4 0.0 4.2 1.8 309.1 354.3 0.00 0.1520000 73.7
2021-06-11 19:35:00 87.0 9.1 21.5 87.0 87.0 2.1 2.6 0.9 285.9 328.2 0.00 0.1380000 73.6
2021-06-11 19:40:00 86.8 7.6 17.3 86.8 86.8 2.8 3.5 2.4 318.8 324.1 0.00 0.1240000 73.6
2021-06-11 19:45:00 85.3 8.2 18.0 85.3 85.3 3.3 3.7 2.7 308.2 339.1 0.00 0.1070000 73.5
2021-06-11 19:50:00 84.7 10.0 22.0 84.7 84.7 2.8 3.7 2.4 0.9 355.3 0.00 0.0890000 73.4
2021-06-11 19:55:00 84.2 8.0 16.4 84.2 84.2 3.1 4.4 3.4 344.1 350.2 0.00 0.0720000 73.4
2021-06-11 20:00:00 84.4 8.7 18.6 84.4 84.4 1.7 3.3 2.4 336.9 343.2 0.00 0.0570000 73.3
2021-06-11 20:05:00 83.7 12.6 26.9 83.7 83.7 1.7 2.4 1.6 344.2 353.0 0.00 0.0440000 73.2
2021-06-11 20:10:00 82.5 8.6 16.9 82.5 82.5 2.4 4.7 2.6 311.1 356.4 0.00 0.0320000 73.1
2021-06-11 20:15:00 80.7 14.0 27.2 80.7 80.7 1.3 2.4 1.8 47.1 29.9 0.00 0.0180000 73.1
2021-06-11 20:20:00 79.0 13.4 24.6 79.0 79.0 1.0 2.2 1.3 48.3 55.5 0.00 0.0110000 73.0
2021-06-11 20:25:00 77.6 13.8 24.3 77.6 77.6 1.5 1.9 0.7 42.1 35.8 0.00 0.0080000 72.9
2021-06-11 20:30:00 76.6 13.5 22.9 76.6 76.6 1.5 2.1 1.8 46.5 32.0 0.00 0.0060000 72.8
2021-06-11 20:35:00 75.7 10.6 16.6 75.7 75.7 3.1 4.0 2.1 18.4 28.9 0.00 0.0040000 72.7
2021-06-11 20:40:00 76.9 10.4 17.0 76.9 76.9 2.6 4.2 2.9 9.2 0.5 0.00 0.0020000 72.6
2021-06-11 20:45:00 78.0 8.7 13.9 78.0 78.0 3.0 4.4 3.5 0.1 354.0 0.00 0.0010000 72.5
2021-06-11 20:50:00 79.1 7.7 11.7 79.1 79.1 3.1 3.8 3.0 2.4 352.1 0.00 0.0000000 72.4
2021-06-11 20:55:00 79.4 7.4 11.3 79.4 79.4 3.1 4.4 3.1 321.9 1.0 0.00 0.0000000 72.3
2021-06-11 21:00:00 77.7 8.6 13.3 77.7 77.7 1.5 4.0 2.6 11.4 10.4 0.00 0.0000000 72.2
2021-06-11 21:05:00 76.8 9.6 15.0 76.8 76.8 2.2 2.8 2.1 37.0 25.8 0.00 0.0000000 72.2
2021-06-11 21:10:00 75.3 11.0 17.1 75.3 75.3 2.1 3.0 2.0 53.6 31.8 0.00 0.0000000 72.1
2021-06-11 21:15:00 73.3 12.1 17.9 73.3 73.3 2.6 3.0 2.2 66.6 57.6 0.00 0.0000000 71.9
2021-06-11 21:20:00 72.0 10.4 13.2 72.0 72.0 2.6 3.7 2.5 78.7 71.3 0.00 0.0000000 71.9
2021-06-11 21:25:00 71.0 9.4 10.3 71.0 71.0 2.2 2.8 2.4 67.6 75.0 0.00 0.0000000 71.7
2021-06-11 21:30:00 69.0 9.8 9.7 69.0 69.0 1.9 2.4 1.9 72.3 74.9 0.00 0.0000000 71.6
2021-06-11 21:35:00 67.2 9.9 8.6 67.2 67.2 1.9 2.1 1.6 76.7 75.0 0.00 0.0000000 71.5
2021-06-11 21:40:00 66.8 10.1 8.7 66.8 66.8 2.1 2.4 1.8 86.5 71.3 0.00 0.0000000 71.4
2021-06-11 21:45:00 67.0 9.6 7.6 67.0 67.0 1.9 2.6 2.2 72.5 74.3 0.00 0.0000000 71.3
2021-06-11 21:50:00 67.0 9.4 7.1 67.0 67.0 2.4 3.5 2.6 71.8 77.3 0.00 0.0000000 71.2
2021-06-11 21:55:00 66.1 9.5 6.7 66.1 66.1 3.1 3.8 2.7 84.3 83.4 0.00 0.0000000 71.1
2021-06-11 22:00:00 66.9 9.1 6.4 66.9 66.9 3.0 3.1 2.8 69.5 78.4 0.00 0.0000000 71.0
2021-06-11 22:05:00 67.2 9.0 6.3 67.2 67.2 2.4 3.5 2.9 69.4 72.6 0.00 0.0000000 70.9
2021-06-11 22:10:00 65.6 9.6 6.7 65.6 65.6 3.0 3.0 2.6 74.0 69.5 0.00 0.0000000 70.8
2021-06-11 22:15:00 66.8 9.3 6.8 66.8 66.8 3.1 3.1 2.7 68.2 68.1 0.00 0.0000000 70.7
2021-06-11 22:20:00 67.7 8.9 6.6 67.7 67.7 3.1 3.5 3.1 68.4 68.3 0.00 0.0000000 70.6
2021-06-11 22:25:00 66.5 9.0 5.9 66.5 66.5 3.3 3.7 3.3 58.2 70.1 0.00 0.0000000 70.5
2021-06-11 22:30:00 67.9 8.7 6.2 67.9 67.9 2.6 3.8 2.9 67.8 59.8 0.00 0.0000000 70.4
2021-06-11 22:35:00 65.0 9.9 6.8 65.0 65.0 2.2 2.4 1.9 69.1 67.6 0.00 0.0000000 70.3
2021-06-11 22:40:00 65.5 9.5 6.3 65.5 65.5 1.7 2.6 2.2 70.3 69.7 0.00 0.0000000 70.2
2021-06-11 22:45:00 63.2 10.4 6.5 63.2 63.2 3.3 3.3 2.0 64.4 72.2 0.00 0.0000000 70.1
2021-06-11 22:50:00 64.3 9.8 6.2 64.3 64.3 3.8 4.2 3.6 72.5 68.6 0.00 0.0000000 70.0
2021-06-11 22:55:00 64.0 11.2 8.7 64.0 64.0 3.5 4.6 3.5 37.1 61.0 0.00 0.0000000 69.9
2021-06-11 23:00:00 64.5 13.5 13.4 64.5 64.5 2.4 3.5 2.1 69.8 71.3 0.00 0.0000000 69.8
2021-06-11 23:05:00 64.7 14.0 14.4 64.7 64.7 0.8 2.4 1.6 64.5 73.8 0.00 0.0000000 69.7
2021-06-11 23:10:00 64.3 13.6 13.4 64.3 64.3 1.3 1.9 1.0 147.0 93.6 0.00 0.0000000 69.6
2021-06-11 23:15:00 64.3 14.5 14.9 64.3 64.3 1.2 2.1 1.4 83.4 85.7 0.00 0.0000000 69.5
2021-06-11 23:20:00 64.5 15.9 17.1 64.5 64.5 3.7 3.7 1.7 25.8 68.6 0.00 0.0000000 69.4
2021-06-11 23:25:00 64.7 16.4 18.1 64.7 64.7 1.5 2.8 1.7 140.6 89.4 0.00 0.0000000 69.3
2021-06-11 23:30:00 64.8 16.9 18.8 64.8 64.8 1.7 3.0 1.7 199.7 74.5 0.00 0.0000000 69.3
2021-06-11 23:35:00 64.8 16.3 17.9 64.8 64.8 1.2 2.2 1.3 96.0 86.3 0.00 0.0000000 69.2
2021-06-11 23:40:00 64.6 16.1 17.4 64.6 64.6 1.2 2.2 1.4 36.2 73.1 0.00 0.0000000 69.1
2021-06-11 23:45:00 64.0 15.6 16.3 64.0 64.0 1.5 3.0 1.5 342.0 40.6 0.00 0.0000000 69.0
2021-06-11 23:50:00 63.8 15.1 15.3 63.8 63.8 2.4 2.4 1.8 34.1 43.6 0.00 0.0000000 69.0
2021-06-11 23:55:00 63.5 15.5 15.7 63.5 63.5 1.7 2.4 1.6 66.0 48.2 0.00 0.0000000 68.9
2021-06-12 00:00:00 63.2 13.8 12.8 63.2 63.2 1.2 2.2 1.2 103.1 85.6 0.00 0.0000000 68.8

Data is courtesy of the NM Climate Center. DO NOT USE IN LEGAL PROCEEDINGS.